Time;durP1;ratioP1;P1;durP2;ratioP2;P2;SDS_P1;SDS_P2;PMS_P1;PMS_P2;Temp;Humidity;BMP_temperature;BMP_pressure;BME280_temperature;BME280_humidity;BME280_pressure;Samples;Min_cycle;Max_cycle;Signal;HPM_P1;HPM_P2
2021/12/26 00:01:08;;;;;;;0.10;0.10;;;6.80;99.90;;;;;;5058119;28;20024;-92
2021/12/26 00:03:35;;;;;;;0.10;0.10;;;6.80;99.90;;;;;;5056325;28;20025;-92
2021/12/26 00:06:06;;;;;;;0.17;0.17;;;6.80;99.90;;;;;;5042995;28;20272;-91
2021/12/26 00:08:36;;;;;;;0.10;0.10;;;6.70;99.90;;;;;;5040479;28;20041;-92
2021/12/26 00:11:03;;;;;;;0.10;0.10;;;6.70;99.90;;;;;;5036583;28;20078;-92
2021/12/26 00:13:30;;;;;;;0.10;0.10;;;6.70;99.90;;;;;;5035758;28;20021;-92
2021/12/26 00:15:57;;;;;;;0.10;0.10;;;6.70;99.90;;;;;;5037282;28;20482;-92
2021/12/26 00:18:23;;;;;;;0.20;0.20;;;6.80;99.90;;;;;;5036522;28;20025;-92
2021/12/26 00:20:49;;;;;;;0.20;0.20;;;6.80;99.90;;;;;;5037241;28;20029;-92
2021/12/26 00:23:16;;;;;;;0.20;0.20;;;6.80;99.90;;;;;;5036939;28;20045;-92
2021/12/26 00:25:44;;;;;;;0.10;0.10;;;6.90;99.90;;;;;;5038211;28;20029;-92
2021/12/26 00:28:10;;;;;;;0.63;0.57;;;6.80;99.90;;;;;;5037329;28;20517;-92
2021/12/26 00:30:36;;;;;;;0.10;0.10;;;6.80;99.90;;;;;;5036932;28;20478;-92
2021/12/26 00:33:02;;;;;;;0.10;0.10;;;6.80;99.90;;;;;;5036140;28;20057;-93
2021/12/26 00:35:28;;;;;;;0.32;0.32;;;6.90;99.90;;;;;;5035879;28;20021;-92
2021/12/26 00:37:55;;;;;;;0.10;0.10;;;6.90;99.90;;;;;;5037445;28;20044;-92
2021/12/26 00:40:22;;;;;;;0.10;0.10;;;6.80;99.90;;;;;;5037015;28;20029;-92
2021/12/26 00:42:49;;;;;;;0.10;0.10;;;6.70;99.90;;;;;;5035024;28;20112;-92
2021/12/26 00:45:15;;;;;;;0.10;0.10;;;6.70;99.90;;;;;;5035139;28;20052;-92
2021/12/26 00:47:41;;;;;;;0.28;0.28;;;6.60;99.90;;;;;;5035670;28;20679;-92
2021/12/26 00:50:10;;;;;;;0.20;0.20;;;6.70;99.90;;;;;;5036442;28;20029;-92
2021/12/26 00:52:36;;;;;;;0.10;0.10;;;6.80;99.90;;;;;;5036413;28;20036;-92
2021/12/26 00:55:05;;;;;;;0.17;0.17;;;6.80;99.90;;;;;;5036386;28;20028;-93
2021/12/26 00:57:31;;;;;;;0.10;0.10;;;6.70;99.90;;;;;;5035565;28;20536;-92
2021/12/26 00:59:56;;;;;;;0.20;0.20;;;6.60;99.90;;;;;;5035251;28;20025;-92
2021/12/26 01:02:22;;;;;;;0.75;0.75;;;6.60;99.90;;;;;;5035816;28;20029;-92
2021/12/26 01:04:48;;;;;;;0.20;0.20;;;6.60;99.90;;;;;;5035150;28;20075;-92
2021/12/26 01:07:30;;;;;;;0.10;0.10;;;6.50;99.90;;;;;;5035282;28;20040;-93
2021/12/26 01:09:56;;;;;;;;;;;6.50;99.90;;;;;;5034764;28;20617;-92
2021/12/26 01:12:23;;;;;;;0.75;0.30;;;6.50;99.90;;;;;;5052027;28;19909;-92
2021/12/26 01:14:53;;;;;;;0.10;0.10;;;6.50;99.90;;;;;;5036543;28;20033;-92
2021/12/26 01:17:22;;;;;;;0.10;0.10;;;6.40;99.90;;;;;;5036144;28;20045;-93
2021/12/26 01:19:52;;;;;;;0.10;0.10;;;6.40;99.90;;;;;;5041607;28;20021;-92
2021/12/26 01:22:18;;;;;;;0.30;0.30;;;6.20;99.90;;;;;;5041460;28;20013;-93
2021/12/26 01:24:45;;;;;;;0.50;0.50;;;6.10;99.90;;;;;;5038404;28;20072;-93
2021/12/26 01:27:12;;;;;;;0.30;0.30;;;6.20;99.90;;;;;;5038540;28;20077;-93
2021/12/26 01:29:38;;;;;;;0.73;0.43;;;6.10;99.90;;;;;;5034737;28;20034;-92
2021/12/26 01:32:05;;;;;;;0.10;0.10;;;6.00;99.90;;;;;;5034663;28;20072;-92
2021/12/26 01:34:32;;;;;;;0.10;0.10;;;6.10;99.90;;;;;;5034009;28;20028;-92
2021/12/26 01:36:58;;;;;;;0.20;0.20;;;6.10;99.90;;;;;;5035545;28;20026;-92
2021/12/26 01:39:25;;;;;;;0.63;0.57;;;6.20;99.90;;;;;;5032917;28;20018;-92
2021/12/26 01:41:52;;;;;;;0.10;0.10;;;6.10;99.90;;;;;;5031275;28;20018;-92
2021/12/26 01:44:18;;;;;;;0.60;0.60;;;6.10;99.90;;;;;;5032097;28;20041;-92
2021/12/26 01:46:46;;;;;;;0.10;0.10;;;6.10;99.90;;;;;;5031366;28;20108;-92
2021/12/26 01:49:16;;;;;;;4.28;2.28;;;6.00;99.90;;;;;;5031199;28;20030;-92
2021/12/26 01:51:43;;;;;;;0.52;0.52;;;6.00;99.90;;;;;;5031429;28;20088;-93
2021/12/26 01:54:11;;;;;;;0.10;0.10;;;6.00;99.90;;;;;;5032272;28;20380;-92
2021/12/26 01:56:39;;;;;;;0.20;0.20;;;5.80;99.90;;;;;;5035883;28;20024;-92
2021/12/26 01:59:06;;;;;;;0.10;0.10;;;5.90;99.90;;;;;;5035234;28;20691;-92
2021/12/26 02:01:33;;;;;;;0.10;0.10;;;5.90;99.90;;;;;;5033431;28;20025;-92
2021/12/26 02:04:00;;;;;;;0.20;0.20;;;6.00;99.90;;;;;;5041130;28;20009;-92
2021/12/26 02:06:26;;;;;;;0.17;0.17;;;6.20;99.90;;;;;;5041062;28;20013;-93
2021/12/26 02:08:52;;;;;;;0.20;0.20;;;6.10;99.90;;;;;;5038904;28;20030;-92
2021/12/26 02:11:18;;;;;;;0.10;0.10;;;6.10;99.90;;;;;;5031737;28;20056;-92
2021/12/26 02:13:43;;;;;;;0.10;0.10;;;6.00;99.90;;;;;;5032434;28;20029;-92
2021/12/26 02:16:11;;;;;;;0.57;0.57;;;6.10;99.90;;;;;;5033601;28;20029;-93
2021/12/26 02:18:37;;;;;;;0.20;0.20;;;6.00;99.90;;;;;;5034303;28;20018;-92
2021/12/26 02:29:04;;;;;;;0.10;0.10;;;5.90;99.90;;;;;;5049108;28;19944;-91
2021/12/26 02:31:30;;;;;;;0.20;0.20;;;5.90;99.90;;;;;;5030890;28;20049;-93
2021/12/26 02:33:56;;;;;;;0.10;0.10;;;6.10;99.90;;;;;;5030949;28;20041;-92
2021/12/26 02:36:21;;;;;;;0.35;0.35;;;6.10;99.90;;;;;;5030970;28;20120;-91
2021/12/26 02:38:48;;;;;;;1.75;0.95;;;6.10;99.90;;;;;;5030843;28;20026;-92
2021/12/26 02:41:13;;;;;;;0.63;0.63;;;6.00;99.90;;;;;;5030357;28;20030;-92
2021/12/26 02:43:39;;;;;;;0.17;0.17;;;6.10;99.90;;;;;;5030804;28;20033;-92
2021/12/26 02:46:07;;;;;;;0.20;0.20;;;6.00;99.90;;;;;;5030665;28;20043;-92
2021/12/26 02:48:34;;;;;;;0.28;0.28;;;5.90;99.90;;;;;;5030352;28;20028;-92
2021/12/26 02:51:01;;;;;;;0.10;0.10;;;5.80;99.90;;;;;;5032159;28;20093;-92
2021/12/26 02:53:27;;;;;;;0.30;0.30;;;5.80;99.90;;;;;;5033109;28;20022;-92
2021/12/26 02:55:55;;;;;;;0.75;0.75;;;5.80;99.90;;;;;;5030962;28;20024;-92
2021/12/26 02:58:22;;;;;;;0.35;0.35;;;5.70;99.90;;;;;;5030795;28;20017;-92
2021/12/26 03:01:04;;;;;;;1.55;0.90;;;5.70;99.90;;;;;;5029578;28;20034;-92
2021/12/26 03:03:30;;;;;;;0.65;0.65;;;5.50;99.90;;;;;;5029649;28;20095;-92
2021/12/26 03:06:01;;;;;;;0.65;0.65;;;5.50;99.90;;;;;;5032933;28;20025;-92
2021/12/26 03:08:27;;;;;;;0.13;0.13;;;5.50;99.90;;;;;;5029933;28;20036;-93
2021/12/26 03:10:54;;;;;;;0.20;0.20;;;5.50;99.90;;;;;;5031135;28;20030;-92
2021/12/26 03:13:20;;;;;;;0.10;0.10;;;5.50;99.90;;;;;;5031616;28;20030;-91
2021/12/26 03:15:46;;;;;;;0.10;0.10;;;5.40;99.90;;;;;;5031784;28;20017;-92
2021/12/26 03:18:12;;;;;;;0.20;0.20;;;5.40;99.90;;;;;;5034032;28;20028;-92
2021/12/26 03:20:44;;;;;;;0.47;0.47;;;5.40;99.90;;;;;;5031869;28;20033;-92
2021/12/26 03:23:11;;;;;;;;;;;5.40;99.90;;;;;;5031497;28;20028;-92
2021/12/26 03:25:37;;;;;;;0.13;0.13;;;5.20;99.90;;;;;;5049246;28;19897;-92
2021/12/26 03:28:05;;;;;;;0.95;0.60;;;5.10;99.90;;;;;;5030349;28;20513;-91
2021/12/26 03:30:33;;;;;;;0.20;0.20;;;5.00;99.90;;;;;;5029217;28;20032;-92
2021/12/26 03:33:00;;;;;;;0.63;0.63;;;4.90;99.90;;;;;;5025239;28;20030;-92
2021/12/26 03:35:28;;;;;;;0.28;0.28;;;5.00;99.90;;;;;;5026987;28;20024;-92
2021/12/26 03:37:55;;;;;;;0.10;0.10;;;5.10;99.90;;;;;;5028636;28;20033;-92
2021/12/26 03:40:21;;;;;;;0.10;0.10;;;5.00;99.90;;;;;;5026907;28;20025;-92
2021/12/26 03:42:47;;;;;;;4.90;0.75;;;5.10;99.90;;;;;;5028111;28;20029;-92
2021/12/26 03:45:12;;;;;;;0.55;0.55;;;5.10;99.90;;;;;;5027800;28;20029;-92
2021/12/26 03:47:39;;;;;;;0.10;0.10;;;5.00;99.90;;;;;;5026136;28;20036;-92
2021/12/26 03:50:07;;;;;;;0.70;0.50;;;5.00;99.90;;;;;;5026314;28;20082;-92
2021/12/26 03:52:41;;;;;;;0.90;0.90;;;4.80;99.90;;;;;;5025536;28;20030;-92
2021/12/26 03:55:07;;;;;;;2.65;1.20;;;4.90;99.90;;;;;;5026412;28;20022;-92
2021/12/26 03:57:33;;;;;;;9.73;0.95;;;4.80;99.90;;;;;;5025914;28;20032;-92
2021/12/26 03:59:59;;;;;;;3.63;1.05;;;4.50;99.90;;;;;;5023912;28;20025;-92
2021/12/26 04:02:25;;;;;;;1.55;1.38;;;4.50;99.90;;;;;;5043316;28;20060;-92
2021/12/26 04:04:50;;;;;;;0.52;0.52;;;4.50;99.90;;;;;;5043443;28;20037;-92
2021/12/26 04:07:16;;;;;;;0.20;0.20;;;4.50;99.90;;;;;;5039871;28;20041;-92
2021/12/26 04:09:42;;;;;;;0.20;0.20;;;4.60;99.90;;;;;;5036381;28;20029;-92
2021/12/26 04:12:09;;;;;;;0.75;0.75;;;4.60;99.90;;;;;;5042924;28;20045;-92
2021/12/26 04:14:34;;;;;;;0.52;0.52;;;4.80;99.90;;;;;;5036119;28;20237;-92
2021/12/26 04:17:00;;;;;;;0.20;0.20;;;4.70;99.90;;;;;;5029041;28;20103;-92
2021/12/26 04:19:26;;;;;;;0.20;0.20;;;4.60;99.90;;;;;;5026376;28;20029;-92
2021/12/26 04:21:52;;;;;;;0.10;0.10;;;4.50;99.90;;;;;;5024237;28;20120;-92
2021/12/26 04:24:18;;;;;;;0.20;0.20;;;4.40;99.90;;;;;;5029215;28;20063;-92
2021/12/26 04:26:43;;;;;;;0.20;0.20;;;4.50;99.90;;;;;;5025128;28;20037;-92
2021/12/26 04:29:09;;;;;;;0.10;0.10;;;4.30;99.90;;;;;;5024262;28;20022;-92
2021/12/26 04:31:37;;;;;;;0.10;0.10;;;4.40;99.90;;;;;;5025181;28;20150;-92
2021/12/26 04:34:03;;;;;;;0.20;0.20;;;4.50;99.90;;;;;;5024821;28;20030;-91
2021/12/26 04:36:30;;;;;;;0.22;0.22;;;4.70;99.90;;;;;;5027488;28;20108;-92
2021/12/26 04:38:56;;;;;;;0.25;0.25;;;4.70;99.90;;;;;;5023626;28;20026;-92
2021/12/26 04:41:22;;;;;;;0.10;0.10;;;4.70;99.90;;;;;;5024386;28;20072;-92
2021/12/26 04:43:48;;;;;;;2.72;1.05;;;4.70;99.90;;;;;;5036088;28;20029;-92
2021/12/26 04:46:14;;;;;;;0.22;0.22;;;4.70;99.90;;;;;;5024632;28;20055;-92
2021/12/26 04:48:42;;;;;;;4.95;0.65;;;4.70;99.90;;;;;;5023158;28;20514;-92
2021/12/26 04:51:09;;;;;;;3.83;3.45;;;4.60;99.90;;;;;;5022519;28;20036;-91
2021/12/26 04:53:36;;;;;;;0.57;0.57;;;4.30;99.90;;;;;;5022619;28;20413;-92
2021/12/26 04:56:03;;;;;;;0.77;0.77;;;4.30;99.90;;;;;;5024623;28;20084;-92
2021/12/26 04:58:29;;;;;;;0.10;0.10;;;4.30;99.90;;;;;;5023927;28;20028;-92
2021/12/26 05:00:55;;;;;;;0.20;0.20;;;4.30;99.90;;;;;;5023710;28;20037;-92
2021/12/26 05:03:21;;;;;;;3.83;1.17;;;4.30;99.90;;;;;;5023387;28;20187;-92
2021/12/26 05:05:47;;;;;;;0.43;0.43;;;4.20;99.90;;;;;;5022581;28;20036;-92
2021/12/26 05:08:13;;;;;;;0.20;0.20;;;4.10;99.90;;;;;;5023614;28;20498;-92
2021/12/26 05:10:40;;;;;;;0.32;0.32;;;4.10;99.90;;;;;;5023483;28;20029;-92
2021/12/26 05:13:06;;;;;;;0.20;0.20;;;4.20;99.90;;;;;;5022981;28;20025;-92
2021/12/26 05:15:33;;;;;;;0.30;0.30;;;4.20;99.90;;;;;;5022996;28;20032;-92
2021/12/26 05:17:58;;;;;;;0.43;0.43;;;4.30;99.90;;;;;;5022534;28;20028;-91
2021/12/26 05:20:27;;;;;;;0.17;0.17;;;4.30;99.90;;;;;;5024606;28;20488;-92
2021/12/26 05:22:54;;;;;;;0.45;0.45;;;4.30;99.90;;;;;;5023525;28;20060;-92
2021/12/26 05:25:22;;;;;;;0.20;0.20;;;4.40;99.90;;;;;;5023726;28;20059;-92
2021/12/26 05:27:49;;;;;;;0.20;0.20;;;4.40;99.90;;;;;;5023867;28;20040;-92
2021/12/26 05:30:17;;;;;;;0.20;0.20;;;4.40;99.90;;;;;;5021729;28;20071;-92
2021/12/26 05:32:44;;;;;;;2.38;0.63;;;4.30;99.90;;;;;;5022285;28;20051;-92
2021/12/26 05:35:12;;;;;;;0.20;0.20;;;4.40;99.90;;;;;;5021103;28;20478;-92
2021/12/26 05:37:39;;;;;;;0.20;0.20;;;4.20;99.90;;;;;;5021861;28;20035;-92
2021/12/26 05:40:07;;;;;;;0.50;0.50;;;4.20;99.90;;;;;;5021343;28;20029;-92
2021/12/26 05:42:34;;;;;;;1.65;1.33;;;4.10;99.90;;;;;;5020319;28;20032;-91
2021/12/26 05:45:00;;;;;;;0.40;0.40;;;4.00;99.90;;;;;;5020779;28;20083;-92
2021/12/26 05:47:26;;;;;;;0.20;0.20;;;4.00;99.90;;;;;;5021856;28;20030;-93
2021/12/26 05:49:53;;;;;;;0.15;0.15;;;4.00;99.90;;;;;;5022584;28;20025;-91
2021/12/26 05:52:19;;;;;;;0.45;0.45;;;4.10;99.90;;;;;;5021967;28;20027;-92
2021/12/26 05:54:46;;;;;;;0.35;0.35;;;4.10;99.90;;;;;;5023272;28;20330;-91
2021/12/26 05:57:12;;;;;;;0.20;0.20;;;4.10;99.90;;;;;;5025215;28;20026;-92
2021/12/26 05:59:38;;;;;;;0.52;0.52;;;4.20;99.90;;;;;;5021502;28;20017;-91
2021/12/26 06:02:04;;;;;;;1.25;0.57;;;3.90;99.90;;;;;;5022831;28;20018;-92
2021/12/26 06:04:30;;;;;;;0.20;0.20;;;4.00;99.90;;;;;;5021804;28;20022;-94
2021/12/26 06:06:56;;;;;;;0.50;0.50;;;3.90;99.90;;;;;;5023635;28;20037;-92
2021/12/26 06:09:22;;;;;;;0.28;0.28;;;3.90;99.90;;;;;;5022262;28;20033;-91
2021/12/26 06:11:48;;;;;;;0.20;0.20;;;3.80;99.90;;;;;;5021889;28;20030;-92
2021/12/26 06:14:14;;;;;;;0.20;0.20;;;3.90;99.90;;;;;;5021060;28;20089;-91
2021/12/26 06:16:40;;;;;;;0.20;0.20;;;4.00;99.90;;;;;;5039683;28;20013;-92
2021/12/26 06:19:06;;;;;;;0.20;0.20;;;4.00;99.90;;;;;;5041184;28;20010;-92
2021/12/26 06:21:32;;;;;;;0.30;0.30;;;4.10;99.90;;;;;;5037862;28;20033;-92
2021/12/26 06:23:57;;;;;;;2.65;1.00;;;4.30;99.90;;;;;;5023792;28;20049;-92
2021/12/26 06:26:26;;;;;;;1.35;1.10;;;4.40;99.90;;;;;;5022416;28;20048;-92
2021/12/26 06:28:52;;;;;;;0.95;0.82;;;4.30;99.90;;;;;;5020779;28;20093;-92
2021/12/26 06:31:18;;;;;;;1.27;1.20;;;4.30;99.90;;;;;;5020295;28;20060;-92
2021/12/26 06:33:46;;;;;;;10.82;4.03;;;4.10;99.90;;;;;;5019344;28;20490;-92
2021/12/26 06:36:12;;;;;;;0.40;0.40;;;3.80;99.90;;;;;;5019581;28;20025;-92
2021/12/26 06:38:40;;;;;;;0.20;0.20;;;3.60;99.90;;;;;;5019190;28;20187;-92
2021/12/26 06:41:07;;;;;;;0.25;0.25;;;3.80;99.90;;;;;;5019725;28;20034;-92
2021/12/26 06:43:34;;;;;;;0.20;0.20;;;3.90;99.90;;;;;;5019731;28;20025;-92
2021/12/26 06:46:00;;;;;;;0.77;0.77;;;4.00;99.90;;;;;;5020198;28;20026;-92
2021/12/26 06:48:27;;;;;;;0.20;0.20;;;3.90;99.90;;;;;;5019330;28;20026;-92
2021/12/26 06:50:53;;;;;;;0.20;0.20;;;4.00;99.90;;;;;;5019665;28;20075;-92
2021/12/26 06:53:20;;;;;;;0.40;0.40;;;3.90;99.90;;;;;;5018918;28;20025;-91
2021/12/26 06:55:46;;;;;;;0.20;0.20;;;3.90;99.90;;;;;;5019117;28;20053;-92
2021/12/26 06:58:14;;;;;;;1.02;0.95;;;3.80;99.90;;;;;;5021074;28;20386;-92
2021/12/26 07:00:40;;;;;;;0.73;0.73;;;3.80;99.90;;;;;;5032772;28;20022;-92
2021/12/26 07:03:07;;;;;;;1.48;1.13;;;3.70;99.90;;;;;;5040512;28;20036;-93
2021/12/26 07:05:32;;;;;;;0.30;0.30;;;3.80;99.90;;;;;;5043757;28;20056;-92
2021/12/26 07:07:58;;;;;;;1.75;1.48;;;3.80;99.90;;;;;;5025802;28;20017;-93
2021/12/26 07:10:24;;;;;;;1.65;1.55;;;3.90;99.90;;;;;;5039413;28;20099;-92
2021/12/26 07:12:50;;;;;;;0.13;0.13;;;3.80;99.90;;;;;;5028662;28;20029;-92
2021/12/26 07:15:16;;;;;;;0.20;0.20;;;3.80;99.90;;;;;;5050973;28;20052;-93
2021/12/26 07:17:42;;;;;;;1.08;1.08;;;3.80;99.90;;;;;;5055245;28;20021;-93
2021/12/26 07:20:10;;;;;;;0.20;0.20;;;4.00;99.90;;;;;;5056770;28;20086;-93
2021/12/26 07:22:38;;;;;;;0.75;0.52;;;4.00;99.90;;;;;;5041419;28;20029;-92
2021/12/26 07:25:06;;;;;;;0.22;0.22;;;3.80;99.90;;;;;;5031010;28;20036;-92
2021/12/26 07:27:33;;;;;;;0.20;0.20;;;3.80;99.90;;;;;;5029880;28;20028;-92
2021/12/26 07:30:02;;;;;;;0.20;0.20;;;3.80;99.90;;;;;;5033539;28;20029;-94
2021/12/26 07:32:29;;;;;;;0.88;0.82;;;3.90;99.90;;;;;;5033209;28;20037;-92
2021/12/26 07:34:55;;;;;;;0.20;0.20;;;3.80;99.90;;;;;;5029532;28;20084;-92
2021/12/26 07:37:21;;;;;;;0.50;0.50;;;3.90;99.90;;;;;;5040171;28;20047;-92
2021/12/26 07:39:46;;;;;;;1.65;1.20;;;4.00;99.90;;;;;;5042392;28;20025;-92
2021/12/26 07:42:12;;;;;;;3.50;1.45;;;4.00;99.90;;;;;;5028759;28;20068;-92
2021/12/26 07:44:38;;;;;;;0.82;0.80;;;3.90;99.90;;;;;;5038732;28;20460;-92
2021/12/26 07:47:04;;;;;;;0.52;0.52;;;3.80;99.90;;;;;;5047208;28;20040;-92
2021/12/26 07:49:30;;;;;;;0.20;0.20;;;3.90;99.90;;;;;;5048538;28;20086;-92
2021/12/26 07:51:58;;;;;;;0.20;0.20;;;3.90;99.90;;;;;;5048559;28;20506;-91
2021/12/26 07:54:25;;;;;;;0.32;0.32;;;4.10;99.90;;;;;;5044023;28;20059;-91
2021/12/26 07:56:53;;;;;;;0.30;0.30;;;4.10;99.90;;;;;;5052587;28;20017;-92
2021/12/26 07:59:19;;;;;;;0.22;0.22;;;4.00;99.90;;;;;;5040340;28;20045;-92
2021/12/26 08:01:46;;;;;;;0.20;0.20;;;4.00;99.90;;;;;;5026044;28;20029;-92
2021/12/26 08:04:13;;;;;;;0.30;0.30;;;4.20;99.90;;;;;;5032310;28;20048;-92
2021/12/26 08:06:40;;;;;;;0.20;0.20;;;4.20;99.90;;;;;;5034253;28;20036;-92
2021/12/26 08:09:07;;;;;;;0.20;0.20;;;4.30;99.90;;;;;;5034017;28;20402;-92
2021/12/26 08:11:33;;;;;;;0.20;0.20;;;4.40;99.90;;;;;;5032536;28;20036;-92
2021/12/26 08:13:59;;;;;;;0.60;0.35;;;4.50;99.90;;;;;;5030268;28;20056;-92
2021/12/26 08:16:26;;;;;;;0.20;0.20;;;4.40;99.90;;;;;;5040463;28;20036;-93
2021/12/26 08:18:53;;;;;;;0.20;0.20;;;4.40;99.90;;;;;;5043099;28;20014;-92
2021/12/26 08:21:19;;;;;;;0.20;0.20;;;4.30;99.90;;;;;;5041916;28;20041;-92
2021/12/26 08:23:45;;;;;;;0.38;0.38;;;4.20;99.90;;;;;;5033390;28;20238;-92
2021/12/26 08:26:11;;;;;;;0.30;0.30;;;4.20;99.90;;;;;;5034989;28;20089;-92
2021/12/26 08:28:38;;;;;;;0.20;0.20;;;4.30;99.90;;;;;;5041625;28;20013;-93
2021/12/26 08:31:04;;;;;;;0.25;0.25;;;4.50;99.90;;;;;;5044943;28;20017;-95
2021/12/26 08:33:30;;;;;;;0.20;0.20;;;4.60;99.90;;;;;;5050919;28;20029;-92
2021/12/26 08:35:56;;;;;;;1.45;1.40;;;4.70;99.90;;;;;;5036735;28;20018;-93
2021/12/26 08:38:23;;;;;;;0.20;0.20;;;4.70;99.90;;;;;;5034286;28;20104;-93
2021/12/26 08:40:51;;;;;;;0.20;0.20;;;4.70;99.90;;;;;;5033166;28;20033;-93
2021/12/26 08:43:18;;;;;;;0.20;0.20;;;4.70;99.90;;;;;;5034656;28;20021;-92
2021/12/26 08:45:44;;;;;;;0.20;0.20;;;4.70;99.90;;;;;;5035448;28;20017;-93
2021/12/26 08:48:11;;;;;;;0.20;0.20;;;4.70;99.90;;;;;;5036798;28;20025;-93
2021/12/26 08:50:37;;;;;;;1.05;1.05;;;4.80;99.90;;;;;;5034388;28;20107;-92
2021/12/26 08:53:03;;;;;;;1.80;1.38;;;4.80;99.90;;;;;;5033778;28;20097;-92
2021/12/26 08:55:30;;;;;;;0.25;0.25;;;4.90;99.90;;;;;;5033675;28;20021;-93
2021/12/26 08:57:56;;;;;;;0.20;0.20;;;4.80;99.90;;;;;;5032677;28;20029;-92
2021/12/26 09:00:23;;;;;;;0.20;0.20;;;4.90;99.90;;;;;;5028991;28;20036;-93
2021/12/26 09:02:50;;;;;;;0.28;0.28;;;4.90;99.90;;;;;;5033655;28;20113;-92
2021/12/26 09:05:16;;;;;;;0.80;0.80;;;5.00;99.90;;;;;;5045074;28;20036;-92
2021/12/26 09:07:42;;;;;;;0.20;0.20;;;5.00;99.90;;;;;;5047819;28;20115;-93
2021/12/26 09:10:10;;;;;;;0.20;0.20;;;4.70;99.90;;;;;;5048408;28;20036;-93
2021/12/26 09:12:36;;;;;;;0.20;0.20;;;4.60;99.90;;;;;;5037073;28;20031;-93
2021/12/26 09:15:04;;;;;;;1.25;1.23;;;4.60;99.90;;;;;;5027426;28;20022;-93
2021/12/26 09:17:29;;;;;;;0.22;0.22;;;4.60;99.90;;;;;;5045718;28;20025;-92
2021/12/26 09:19:55;;;;;;;0.30;0.30;;;4.60;99.90;;;;;;5032954;28;20031;-92
2021/12/26 09:22:21;;;;;;;0.30;0.30;;;4.50;99.90;;;;;;5044284;28;20025;-92
2021/12/26 09:24:47;;;;;;;0.20;0.20;;;4.60;99.90;;;;;;5048585;28;20033;-93
2021/12/26 09:27:15;;;;;;;0.20;0.20;;;4.70;99.90;;;;;;5053545;28;20040;-93
2021/12/26 09:29:41;;;;;;;0.20;0.20;;;4.80;99.90;;;;;;5050120;28;20044;-92
2021/12/26 09:32:08;;;;;;;0.32;0.32;;;4.70;99.90;;;;;;5050154;28;20417;-93
2021/12/26 09:34:34;;;;;;;0.20;0.20;;;4.70;99.90;;;;;;5048625;28;20037;-91
2021/12/26 09:37:03;;;;;;;0.20;0.20;;;4.60;99.90;;;;;;5049757;28;20033;-92
2021/12/26 09:39:30;;;;;;;0.73;0.73;;;4.80;99.90;;;;;;5045426;28;20025;-92
2021/12/26 09:41:58;;;;;;;0.20;0.20;;;4.80;99.90;;;;;;5040872;28;20067;-92
2021/12/26 09:44:24;;;;;;;0.20;0.20;;;4.80;99.90;;;;;;5040954;28;20033;-92
2021/12/26 09:46:51;;;;;;;0.22;0.22;;;4.80;99.90;;;;;;5040503;28;20042;-92
2021/12/26 09:49:17;;;;;;;0.50;0.50;;;4.90;99.90;;;;;;5042586;28;20032;-92
2021/12/26 09:51:44;;;;;;;0.73;0.73;;;4.90;99.90;;;;;;5045380;28;20549;-92
2021/12/26 09:54:10;;;;;;;0.20;0.20;;;4.90;99.90;;;;;;5045949;28;20123;-93
2021/12/26 09:56:36;;;;;;;0.20;0.20;;;4.90;99.90;;;;;;5047326;28;20025;-92
2021/12/26 09:59:07;;;;;;;0.55;0.55;;;4.90;99.90;;;;;;5061281;28;20016;-95
2021/12/26 10:01:37;;;;;;;0.30;0.30;;;4.90;99.90;;;;;;5060577;28;20013;-95
2021/12/26 10:04:17;;;;;;;0.20;0.20;;;4.80;99.90;;;;;;5046675;28;20096;-92
2021/12/26 10:06:45;;;;;;;0.82;0.82;;;4.90;99.90;;;;;;5045976;28;20025;-92
2021/12/26 10:09:11;;;;;;;0.60;0.60;;;5.00;99.90;;;;;;5045866;28;20032;-92
2021/12/26 10:11:43;;;;;;;0.38;0.38;;;4.90;99.90;;;;;;5041195;28;20056;-92
2021/12/26 10:14:18;;;;;;;0.20;0.20;;;5.00;99.90;;;;;;5048370;28;20021;-92
2021/12/26 10:16:58;;;;;;;1.27;1.27;;;5.00;99.90;;;;;;5056077;28;20013;-93
2021/12/26 10:19:25;;;;;;;2.45;2.28;;;5.00;99.90;;;;;;5061291;28;20013;-95
2021/12/26 10:22:00;;;;;;;0.30;0.30;;;5.00;99.90;;;;;;5057123;28;20064;-92
2021/12/26 10:24:30;;;;;;;0.50;0.50;;;5.00;99.90;;;;;;5042146;28;20028;-92
2021/12/26 10:27:04;;;;;;;0.10;0.10;;;5.00;99.90;;;;;;5042051;28;20051;-92
2021/12/26 10:29:39;;;;;;;0.20;0.20;;;5.10;99.90;;;;;;5039793;28;20029;-92
2021/12/26 10:32:15;;;;;;;0.30;0.30;;;5.20;99.90;;;;;;5037124;28;20056;-92
2021/12/26 10:34:45;;;;;;;0.55;0.55;;;5.30;99.90;;;;;;5040542;28;20086;-92
2021/12/26 10:37:16;;;;;;;0.20;0.20;;;5.30;99.90;;;;;;5044180;28;20100;-94
2021/12/26 10:39:51;;;;;;;0.20;0.20;;;5.40;99.90;;;;;;5043242;28;20033;-91
2021/12/26 10:42:31;;;;;;;0.10;0.10;;;5.40;99.90;;;;;;5035291;28;20033;-91
2021/12/26 10:45:03;;;;;;;0.98;0.68;;;5.40;99.90;;;;;;5042621;28;20025;-92
2021/12/26 10:47:31;;;;;;;0.90;0.90;;;5.50;99.90;;;;;;5047311;28;20397;-93
2021/12/26 10:50:00;;;;;;;0.20;0.20;;;5.60;99.90;;;;;;5049517;28;20029;-93
2021/12/26 10:52:35;;;;;;;0.20;0.20;;;5.50;99.90;;;;;;5055494;28;20025;-93
2021/12/26 10:55:08;;;;;;;0.30;0.30;;;5.60;99.90;;;;;;5052443;28;20096;-93
2021/12/26 10:57:40;;;;;;;0.20;0.20;;;5.40;99.90;;;;;;5052895;28;20032;-94
2021/12/26 11:00:14;;;;;;;0.30;0.30;;;5.40;99.90;;;;;;5052090;28;20025;-93
2021/12/26 11:02:45;;;;;;;18.10;4.78;;;5.50;99.90;;;;;;5050858;28;20490;-93
2021/12/26 11:05:14;;;;;;;0.20;0.20;;;5.50;99.90;;;;;;5050302;28;20029;-92
2021/12/26 11:07:51;;;;;;;0.45;0.45;;;5.60;99.90;;;;;;5049444;28;20081;-92
2021/12/26 11:10:44;;;;;;;0.80;0.80;;;5.70;99.90;;;;;;5047212;28;20032;-91
2021/12/26 11:13:36;;;;;;;0.20;0.20;;;5.80;99.90;;;;;;5046200;28;20139;-93
2021/12/26 11:16:05;;;;;;;;;;;6.00;99.90;;;;;;5045735;28;20078;-92
2021/12/26 11:18:30;;;;;;;0.20;0.20;;;5.90;99.90;;;;;;5063251;28;20354;-93
2021/12/26 11:21:06;;;;;;;0.20;0.20;;;6.00;99.90;;;;;;5047436;28;20039;-92
2021/12/26 11:23:36;;;;;;;1.25;1.17;;;6.00;99.90;;;;;;5046192;28;20056;-92
2021/12/26 11:26:06;;;;;;;0.20;0.20;;;6.00;99.90;;;;;;5046781;28;20069;-92
2021/12/26 11:28:38;;;;;;;0.20;0.20;;;6.00;99.90;;;;;;5033850;28;20087;-91
2021/12/26 11:31:21;;;;;;;0.25;0.25;;;6.00;99.90;;;;;;5037645;28;20502;-92
2021/12/26 11:33:55;;;;;;;0.45;0.45;;;6.10;99.90;;;;;;5025923;28;20037;-93
2021/12/26 11:36:24;;;;;;;0.10;0.10;;;6.20;99.90;;;;;;5027814;28;20059;-91
2021/12/26 11:38:57;;;;;;;0.10;0.10;;;6.20;99.90;;;;;;5025345;28;20062;-95
2021/12/26 11:41:56;;;;;;;4.05;1.65;;;6.40;99.90;;;;;;5025777;28;20390;-89
2021/12/26 11:45:01;;;;;;;;;;;;;;;;;;;;;
2021/12/26 11:48:27;;;;;;;0.20;0.20;;;6.70;99.90;;;;;;5036839;28;20036;-89
2021/12/26 11:51:22;;;;;;;0.35;0.35;;;6.60;99.90;;;;;;5029804;28;20590;-88
2021/12/26 11:54:14;;;;;;;0.20;0.20;;;6.60;99.90;;;;;;5017238;28;20100;-88
2021/12/26 11:57:20;;;;;;;0.20;0.20;;;6.70;99.90;;;;;;5017861;28;20033;-89
2021/12/26 12:00:44;;;;;;;;;;;;;;;;;;;;;
2021/12/26 12:03:25;;;;;;;0.17;0.17;;;6.70;99.90;;;;;;5016571;28;20049;-89
2021/12/26 12:06:32;;;;;;;0.43;0.43;;;6.70;99.90;;;;;;5018784;28;20087;-88
2021/12/26 12:08:58;;;;;;;0.20;0.20;;;6.70;99.90;;;;;;5017953;28;20502;-88
2021/12/26 12:11:27;;;;;;;0.15;0.15;;;6.80;99.90;;;;;;5019494;28;20053;-89
2021/12/26 12:14:04;;;;;;;0.28;0.28;;;7.00;99.90;;;;;;5022935;28;20021;-89
2021/12/26 12:16:33;;;;;;;0.13;0.13;;;7.00;99.90;;;;;;5037862;28;20022;-88
2021/12/26 12:19:17;;;;;;;0.10;0.10;;;7.10;99.90;;;;;;5039253;28;20248;-89
2021/12/26 12:22:35;;;;;;;0.10;0.10;;;7.10;99.90;;;;;;5024632;28;20109;-89
2021/12/26 12:25:33;;;;;;;0.80;0.80;;;7.20;99.90;;;;;;5005065;28;20055;-90
2021/12/26 12:28:07;;;;;;;0.10;0.10;;;7.00;99.90;;;;;;5005645;28;20030;-91
2021/12/26 12:30:42;;;;;;;0.10;0.10;;;6.80;99.90;;;;;;5017916;28;20026;-90
2021/12/26 12:33:13;;;;;;;0.20;0.20;;;6.70;99.90;;;;;;5017595;28;20033;-90
2021/12/26 12:36:03;;;;;;;0.10;0.10;;;6.70;99.90;;;;;;5018168;28;20048;-91
2021/12/26 12:38:42;;;;;;;0.10;0.10;;;6.80;99.90;;;;;;5034140;28;20030;-91
2021/12/26 12:41:34;;;;;;;0.10;0.10;;;6.90;99.90;;;;;;5018498;28;20029;-90
2021/12/26 12:44:06;;;;;;;0.55;0.55;;;6.90;99.90;;;;;;5017941;28;20129;-89
2021/12/26 12:46:52;;;;;;;0.35;0.35;;;6.90;99.90;;;;;;5018117;28;20061;-91
2021/12/26 12:49:20;;;;;;;0.20;0.20;;;6.90;99.90;;;;;;5017690;28;20026;-91
2021/12/26 12:51:58;;;;;;;3.55;1.55;;;6.90;99.90;;;;;;5017985;28;20568;-90
2021/12/26 12:57:37;;;;;;;0.10;0.10;;;6.80;99.90;;;;;;5047532;28;20117;-89
2021/12/26 13:00:25;;;;;;;0.10;0.10;;;6.90;99.90;;;;;;5030084;28;20029;-90
2021/12/26 13:03:17;;;;;;;0.10;0.10;;;6.90;99.90;;;;;;5018286;28;20425;-91
2021/12/26 13:05:52;;;;;;;0.35;0.35;;;7.00;99.90;;;;;;5017822;28;20362;-90
2021/12/26 13:08:54;;;;;;;0.10;0.10;;;7.00;99.90;;;;;;5018926;28;20478;-89
2021/12/26 13:11:33;;;;;;;0.10;0.10;;;6.90;99.90;;;;;;5017671;28;20489;-91
2021/12/26 13:14:07;;;;;;;0.10;0.10;;;7.00;99.90;;;;;;5017112;28;20021;-90
2021/12/26 13:16:41;;;;;;;0.20;0.20;;;7.00;99.90;;;;;;5017663;28;20493;-90
2021/12/26 13:19:16;;;;;;;0.10;0.10;;;7.10;99.90;;;;;;5018353;28;20021;-90
2021/12/26 13:21:42;;;;;;;0.10;0.10;;;7.20;99.90;;;;;;5016701;28;20036;-90
2021/12/26 13:27:27;;;;;;;0.13;0.13;;;7.30;99.90;;;;;;5032701;28;20401;-91